Time,TemperatureF,DewpointF,PressureIn,WindDirection,WindDirectionDegrees,WindSpeedMPH,WindSpeedGustMPH,Humidity,HourlyPrecipIn,Conditions,Clouds,dailyrainin,SoftwareType,DateUTC
2013-11-24 00:01:00,57.6,55.6,30.09,WNW,300,0.0,0.0,93,0.00,RA,,0.00,WeatherDisplay:10.37,2013-11-24 05:01:00,
2013-11-24 00:06:00,57.7,55.7,30.09,WNW,300,0.0,0.0,93,0.00,RA,,0.00,WeatherDisplay:10.37,2013-11-24 05:06:00,
2013-11-24 00:11:00,57.8,55.8,30.10,WNW,300,0.0,0.0,93,0.00,CLR,,0.00,WeatherDisplay:10.37,2013-11-24 05:11:00,
2013-11-24 00:16:00,57.8,55.8,30.10,NW,308,3.5,3.5,93,0.00,CLR,,0.00,WeatherDisplay:10.37,2013-11-24 05:16:00,
2013-11-24 00:21:00,58.0,55.7,30.10,NW,307,3.5,3.5,92,0.00,CLR,,0.00,WeatherDisplay:10.37,2013-11-24 05:21:00,
2013-11-24 00:26:00,58.1,55.8,30.10,NW,306,3.5,3.5,92,0.00,CLR,,0.00,WeatherDisplay:10.37,2013-11-24 05:26:00,
2013-11-24 00:31:00,58.2,55.9,30.10,NW,306,2.0,2.0,92,0.00,CLR,,0.00,WeatherDisplay:10.37,2013-11-24 05:31:00,
2013-11-24 00:36:00,58.3,55.7,30.10,WNW,298,4.6,4.6,91,0.00,CLR,,0.00,WeatherDisplay:10.37,2013-11-24 05:36:00,
2013-11-24 00:41:00,58.4,55.8,30.10,WNW,302,3.0,3.0,91,0.00,CLR,,0.00,WeatherDisplay:10.37,2013-11-24 05:41:00,
2013-11-24 00:46:00,58.6,56.0,30.10,WNW,302,0.0,0.0,91,0.00,CLR,,0.00,WeatherDisplay:10.37,2013-11-24 05:46:00,
2013-11-24 00:51:00,58.7,56.1,30.10,NNE,22,1.0,0.0,91,0.00,CLR,,0.00,WeatherDisplay:10.37,2013-11-24 05:51:00,
2013-11-24 00:56:00,58.7,55.8,30.10,NNW,330,0.0,0.0,90,0.00,CLR,,0.00,WeatherDisplay:10.37,2013-11-24 05:56:00,
2013-11-24 00:57:00,58.8,55.9,30.10,NNW,331,0.0,0.0,90,0.00,CLR,,0.00,WeatherDisplay:10.37,2013-11-24 05:57:00,
2013-11-24 01:02:00,58.9,56.0,30.10,NNW,327,0.0,0.3,90,0.00,CLR,,0.00,WeatherDisplay:10.37,2013-11-24 06:02:00,
2013-11-24 01:07:00,59.0,56.1,30.10,NNW,328,0.0,0.0,90,0.00,CLR,,0.00,WeatherDisplay:10.37,2013-11-24 06:07:00,
2013-11-24 01:12:00,59.0,56.1,30.11,NNW,328,0.0,0.0,90,0.00,CLR,,0.00,WeatherDisplay:10.37,2013-11-24 06:12:00,
2013-11-24 01:17:00,59.0,56.1,30.10,NNW,328,0.0,0.0,90,0.00,CLR,,0.00,WeatherDisplay:10.37,2013-11-24 06:17:00,
2013-11-24 01:22:00,59.0,56.1,30.10,NNW,327,0.0,0.0,90,0.00,CLR,,0.00,WeatherDisplay:10.37,2013-11-24 06:22:00,
2013-11-24 01:27:00,59.0,56.1,30.11,NNW,327,0.0,0.0,90,0.00,CLR,,0.00,WeatherDisplay:10.37,2013-11-24 06:27:00,
2013-11-24 01:32:00,59.0,56.1,30.11,NNW,328,0.0,0.0,90,0.00,CLR,,0.00,WeatherDisplay:10.37,2013-11-24 06:32:00,
2013-11-24 01:37:00,59.0,56.1,30.11,NNW,327,0.0,0.0,90,0.00,CLR,,0.00,WeatherDisplay:10.37,2013-11-24 06:37:00,
2013-11-24 01:42:00,59.0,56.1,30.11,NNW,327,1.2,0.0,90,0.00,CLR,,0.00,WeatherDisplay:10.37,2013-11-24 06:42:00,
2013-11-24 01:47:00,59.0,56.1,30.12,NNW,327,0.0,0.0,90,0.00,CLR,,0.00,WeatherDisplay:10.37,2013-11-24 06:47:00,
2013-11-24 01:52:00,59.0,55.8,30.12,NW,309,0.0,0.0,89,0.00,CLR,,0.00,WeatherDisplay:10.37,2013-11-24 06:52:00,
2013-11-24 01:57:00,59.0,55.8,30.12,NW,307,1.0,1.0,89,0.00,CLR,,0.00,WeatherDisplay:10.37,2013-11-24 06:57:00,
2013-11-24 02:02:00,59.0,55.8,30.12,NW,322,1.2,0.0,89,0.00,CLR,,0.00,WeatherDisplay:10.37,2013-11-24 07:02:00,
2013-11-24 02:07:00,58.8,55.3,30.12,NW,321,0.0,0.0,88,0.00,CLR,,0.00,WeatherDisplay:10.37,2013-11-24 07:07:00,
2013-11-24 02:12:00,58.7,54.8,30.12,NW,317,3.5,3.5,87,0.00,CLR,,0.00,WeatherDisplay:10.37,2013-11-24 07:12:00,
2013-11-24 02:17:00,58.7,54.8,30.12,NW,317,0.0,0.0,87,0.00,CLR,,0.00,WeatherDisplay:10.37,2013-11-24 07:17:00,
2013-11-24 02:22:00,58.6,54.7,30.12,NW,315,0.0,0.0,87,0.00,CLR,,0.00,WeatherDisplay:10.37,2013-11-24 07:22:00,
2013-11-24 02:27:00,58.5,54.3,30.12,NW,319,1.2,0.0,86,0.00,CLR,,0.00,WeatherDisplay:10.37,2013-11-24 07:27:00,
2013-11-24 02:32:00,58.4,53.9,30.12,NW,319,0.0,0.0,85,0.00,CLR,,0.00,WeatherDisplay:10.37,2013-11-24 07:32:00,
2013-11-24 02:37:00,58.3,53.8,30.12,NW,318,0.0,0.0,85,0.00,CLR,,0.00,WeatherDisplay:10.37,2013-11-24 07:37:00,
2013-11-24 02:42:00,58.3,53.5,30.12,NNW,329,0.0,0.0,84,0.00,CLR,,0.00,WeatherDisplay:10.37,2013-11-24 07:42:00,
2013-11-24 02:47:00,58.2,53.4,30.13,NNW,330,0.0,0.3,84,0.00,CLR,,0.00,WeatherDisplay:10.37,2013-11-24 07:47:00,
2013-11-24 02:52:00,58.1,53.3,30.13,WNW,303,1.2,0.0,84,0.00,CLR,,0.00,WeatherDisplay:10.37,2013-11-24 07:52:00,
2013-11-24 02:57:00,58.1,53.0,30.13,North,355,9.2,9.2,83,0.00,CLR,,0.00,WeatherDisplay:10.37,2013-11-24 07:57:00,
2013-11-24 03:02:00,58.0,52.9,30.13,NW,325,3.5,0.0,83,0.00,CLR,,0.00,WeatherDisplay:10.37,2013-11-24 08:02:00,
2013-11-24 03:07:00,58.0,52.5,30.13,NNW,340,2.3,2.3,82,0.00,CLR,,0.00,WeatherDisplay:10.37,2013-11-24 08:07:00,
2013-11-24 03:12:00,57.9,52.1,30.13,NE,41,3.0,3.0,81,0.00,CLR,,0.00,WeatherDisplay:10.37,2013-11-24 08:12:00,
2013-11-24 03:17:00,57.7,51.6,30.13,NNE,23,4.6,4.6,80,0.00,CLR,,0.00,WeatherDisplay:10.37,2013-11-24 08:17:00,
2013-11-24 03:22:00,57.5,50.7,30.13,North,11,3.5,3.5,78,0.00,CLR,,0.00,WeatherDisplay:10.37,2013-11-24 08:22:00,
2013-11-24 03:27:00,57.4,50.2,30.13,North,355,0.0,0.0,77,0.00,CLR,,0.00,WeatherDisplay:10.37,2013-11-24 08:27:00,
2013-11-24 03:32:00,57.2,49.7,30.13,NNW,341,3.5,3.5,76,0.00,CLR,,0.00,WeatherDisplay:10.37,2013-11-24 08:32:00,
2013-11-24 03:37:00,57.1,49.2,30.13,NNW,344,6.9,6.9,75,0.00,CLR,,0.00,WeatherDisplay:10.37,2013-11-24 08:37:00,
2013-11-24 03:42:00,57.0,49.2,30.13,North,5,0.0,0.0,75,0.00,CLR,,0.00,WeatherDisplay:10.37,2013-11-24 08:42:00,
2013-11-24 03:47:00,56.8,48.6,30.13,NNE,30,8.1,8.1,74,0.00,CLR,,0.00,WeatherDisplay:10.37,2013-11-24 08:47:00,
2013-11-24 03:52:00,56.7,48.5,30.14,North,355,3.5,3.5,74,0.00,CLR,,0.00,WeatherDisplay:10.37,2013-11-24 08:52:00,
2013-11-24 03:57:00,56.4,48.2,30.14,NNW,342,4.6,4.6,74,0.00,CLR,,0.00,WeatherDisplay:10.37,2013-11-24 08:57:00,
2013-11-24 04:02:00,56.2,48.0,30.14,NE,45,6.9,6.9,74,0.00,CLR,,0.00,WeatherDisplay:10.37,2013-11-24 09:02:00,
2013-11-24 04:07:00,55.9,47.7,30.15,NE,37,3.5,3.5,74,0.00,CLR,,0.00,WeatherDisplay:10.37,2013-11-24 09:07:00,
2013-11-24 04:12:00,55.5,47.3,30.15,NNE,32,4.6,4.6,74,0.00,CLR,,0.00,WeatherDisplay:10.37,2013-11-24 09:12:00,
2013-11-24 04:17:00,55.1,46.6,30.15,NE,41,6.9,6.9,73,0.00,CLR,,0.00,WeatherDisplay:10.37,2013-11-24 09:17:00,
2013-11-24 04:22:00,54.8,46.7,30.16,NNE,23,3.5,3.5,74,0.00,CLR,,0.00,WeatherDisplay:10.37,2013-11-24 09:22:00,
2013-11-24 04:27:00,54.6,46.5,30.16,NE,53,4.0,4.0,74,0.00,CLR,,0.00,WeatherDisplay:10.37,2013-11-24 09:27:00,
2013-11-24 04:32:00,54.3,46.2,30.16,North,349,5.0,5.0,74,0.00,CLR,,0.00,WeatherDisplay:10.37,2013-11-24 09:32:00,
2013-11-24 04:37:00,54.0,45.5,30.16,NNE,32,4.0,5.6,73,0.00,CLR,,0.00,WeatherDisplay:10.37,2013-11-24 09:37:00,
2013-11-24 04:42:00,53.8,45.3,30.17,NNE,19,3.5,3.5,73,0.00,CLR,,0.00,WeatherDisplay:10.37,2013-11-24 09:42:00,
2013-11-24 04:47:00,53.6,45.2,30.17,NNW,330,2.3,2.3,73,0.00,CLR,,0.00,WeatherDisplay:10.37,2013-11-24 09:47:00,
2013-11-24 04:52:00,53.4,44.6,30.17,NNE,21,9.2,9.2,72,0.00,CLR,,0.00,WeatherDisplay:10.37,2013-11-24 09:52:00,
2013-11-24 04:57:00,53.2,44.4,30.17,NNE,13,4.6,4.6,72,0.00,CLR,,0.00,WeatherDisplay:10.37,2013-11-24 09:57:00,
2013-11-24 05:02:00,53.0,44.2,30.18,NNE,28,2.3,0.0,72,0.00,CLR,,0.00,WeatherDisplay:10.37,2013-11-24 10:02:00,
2013-11-24 05:07:00,52.8,43.7,30.18,NW,326,6.9,6.9,71,0.00,CLR,,0.00,WeatherDisplay:10.37,2013-11-24 10:07:00,
2013-11-24 05:12:00,52.5,43.0,30.18,NE,41,2.3,2.3,70,0.00,CLR,,0.00,WeatherDisplay:10.37,2013-11-24 10:12:00,
2013-11-24 05:17:00,52.2,42.7,30.18,NNE,22,3.5,3.5,70,0.00,CLR,,0.00,WeatherDisplay:10.37,2013-11-24 10:17:00,
2013-11-24 05:22:00,51.9,42.0,30.19,NE,36,5.0,5.0,69,0.00,CLR,,0.00,WeatherDisplay:10.37,2013-11-24 10:22:00,
2013-11-24 05:27:00,51.6,41.4,30.19,NNE,28,4.6,4.6,68,0.00,CLR,,0.00,WeatherDisplay:10.37,2013-11-24 10:27:00,
2013-11-24 05:32:00,51.4,41.2,30.19,NE,38,6.9,6.9,68,0.00,CLR,,0.00,WeatherDisplay:10.37,2013-11-24 10:32:00,
2013-11-24 05:37:00,51.2,40.6,30.20,NNW,327,3.5,3.5,67,0.00,CLR,,0.00,WeatherDisplay:10.37,2013-11-24 10:37:00,
2013-11-24 05:42:00,50.9,40.3,30.20,NE,49,3.5,3.5,67,0.00,CLR,,0.00,WeatherDisplay:10.37,2013-11-24 10:42:00,
2013-11-24 05:47:00,50.7,39.0,30.20,NE,36,9.2,9.2,64,0.00,CLR,,0.00,WeatherDisplay:10.37,2013-11-24 10:47:00,
2013-11-24 05:52:00,50.5,38.4,30.20,North,11,10.4,10.4,63,0.00,CLR,,0.00,WeatherDisplay:10.37,2013-11-24 10:52:00,
2013-11-24 05:57:00,50.3,37.8,30.21,North,5,4.6,4.6,62,0.00,CLR,,0.00,WeatherDisplay:10.37,2013-11-24 10:57:00,
2013-11-24 06:02:00,50.1,37.6,30.21,NE,49,4.0,4.0,62,0.00,CLR,,0.00,WeatherDisplay:10.37,2013-11-24 11:02:00,
2013-11-24 06:07:00,49.9,37.0,30.22,NE,37,8.1,8.1,61,0.00,CLR,,0.00,WeatherDisplay:10.37,2013-11-24 11:07:00,
2013-11-24 06:12:00,49.7,36.8,30.22,NE,36,6.0,6.0,61,0.00,CLR,,0.00,WeatherDisplay:10.37,2013-11-24 11:12:00,
2013-11-24 06:17:00,49.5,36.2,30.22,NE,41,4.6,4.6,60,0.00,CLR,,0.00,WeatherDisplay:10.37,2013-11-24 11:17:00,
2013-11-24 06:22:00,49.3,36.4,30.22,NNE,32,3.5,3.5,61,0.00,CLR,,0.00,WeatherDisplay:10.37,2013-11-24 11:22:00,
2013-11-24 06:27:00,49.2,35.5,30.22,NE,52,9.0,9.0,59,0.00,CLR,,0.00,WeatherDisplay:10.37,2013-11-24 11:27:00,
2013-11-24 06:32:00,49.0,35.7,30.23,NNE,32,3.5,3.5,60,0.00,CLR,,0.00,WeatherDisplay:10.37,2013-11-24 11:32:00,
2013-11-24 06:37:00,48.7,35.4,30.24,NE,41,3.0,3.0,60,0.00,CLR,,0.00,WeatherDisplay:10.37,2013-11-24 11:37:00,
2013-11-24 06:42:00,48.5,34.8,30.24,NE,41,3.5,3.5,59,0.00,CLR,,0.00,WeatherDisplay:10.37,2013-11-24 11:42:00,
2013-11-24 06:47:00,48.3,34.6,30.24,NE,56,5.8,5.8,59,0.00,CLR,,0.00,WeatherDisplay:10.37,2013-11-24 11:47:00,
2013-11-24 06:52:00,48.2,34.5,30.24,North,350,6.9,6.9,59,0.00,CLR,,0.00,WeatherDisplay:10.37,2013-11-24 11:52:00,
2013-11-24 06:57:00,48.1,34.4,30.25,NE,41,6.0,6.0,59,0.00,CLR,,0.00,WeatherDisplay:10.37,2013-11-24 11:57:00,
2013-11-24 07:02:00,48.0,33.9,30.25,NE,50,9.2,9.2,58,0.00,CLR,,0.00,WeatherDisplay:10.37,2013-11-24 12:02:00,
2013-11-24 07:07:00,47.9,34.3,30.25,NW,313,5.0,5.0,59,0.00,CLR,,0.00,WeatherDisplay:10.37,2013-11-24 12:07:00,
2013-11-24 07:12:00,47.8,34.2,30.26,ENE,67,4.0,4.0,59,0.00,CLR,,0.00,WeatherDisplay:10.37,2013-11-24 12:12:00,
2013-11-24 07:17:00,47.7,34.1,30.26,NNE,24,3.5,3.5,59,0.00,CLR,,0.00,WeatherDisplay:10.37,2013-11-24 12:17:00,
2013-11-24 07:22:00,47.6,34.0,30.26,NE,34,10.4,10.4,59,0.00,CLR,,0.00,WeatherDisplay:10.37,2013-11-24 12:22:00,
2013-11-24 07:27:00,47.4,33.8,30.27,NNE,23,6.9,6.9,59,0.00,CLR,,0.00,WeatherDisplay:10.37,2013-11-24 12:27:00,
2013-11-24 07:32:00,47.3,33.7,30.27,ENE,75,6.9,6.9,59,0.00,CLR,,0.00,WeatherDisplay:10.37,2013-11-24 12:32:00,
2013-11-24 07:37:00,47.2,34.0,30.27,NNE,30,5.8,5.8,60,0.00,CLR,,0.00,WeatherDisplay:10.37,2013-11-24 12:37:00,
2013-11-24 07:42:00,47.0,33.8,30.27,NNE,32,3.5,3.5,60,0.00,CLR,,0.00,WeatherDisplay:10.37,2013-11-24 12:42:00,
2013-11-24 07:47:00,46.8,34.0,30.27,NE,53,8.1,8.1,61,0.00,CLR,,0.00,WeatherDisplay:10.37,2013-11-24 12:47:00,
2013-11-24 07:52:00,46.6,33.9,30.28,ENE,64,4.6,4.6,61,0.00,CLR,,0.00,WeatherDisplay:10.37,2013-11-24 12:52:00,
2013-11-24 07:57:00,46.5,33.8,30.28,NE,42,5.0,5.0,61,0.00,CLR,,0.00,WeatherDisplay:10.37,2013-11-24 12:57:00,
2013-11-24 08:02:00,46.4,34.1,30.29,NNE,33,8.1,8.1,62,0.00,CLR,,0.00,WeatherDisplay:10.37,2013-11-24 13:02:00,
2013-11-24 08:07:00,46.3,34.0,30.29,NE,42,5.0,5.0,62,0.00,CLR,,0.00,WeatherDisplay:10.37,2013-11-24 13:07:00,
2013-11-24 08:12:00,46.3,34.0,30.30,NE,41,5.0,5.0,62,0.00,CLR,,0.00,WeatherDisplay:10.37,2013-11-24 13:12:00,
2013-11-24 08:17:00,46.3,33.6,30.30,NE,40,11.5,11.5,61,0.00,CLR,,0.00,WeatherDisplay:10.37,2013-11-24 13:17:00,
2013-11-24 08:22:00,46.3,33.2,30.30,East,80,12.0,12.0,60,0.00,CLR,,0.00,WeatherDisplay:10.37,2013-11-24 13:22:00,
2013-11-24 08:27:00,46.6,33.4,30.31,North,9,8.0,8.0,60,0.00,CLR,,0.00,WeatherDisplay:10.37,2013-11-24 13:27:00,
2013-11-24 08:32:00,47.0,33.8,30.31,NE,34,11.5,11.5,60,0.00,CLR,,0.00,WeatherDisplay:10.37,2013-11-24 13:32:00,
2013-11-24 08:37:00,47.5,33.9,30.31,North,9,6.9,6.9,59,0.00,CLR,,0.00,WeatherDisplay:10.37,2013-11-24 13:37:00,
2013-11-24 08:42:00,47.8,33.3,30.31,North,360,10.4,10.4,57,0.00,CLR,,0.00,WeatherDisplay:10.37,2013-11-24 13:42:00,
2013-11-24 08:47:00,48.1,33.1,30.32,NE,45,13.8,13.8,56,0.00,CLR,,0.00,WeatherDisplay:10.37,2013-11-24 13:47:00,
2013-11-24 08:52:00,48.2,32.8,30.32,North,9,9.2,9.2,55,0.00,CLR,,0.00,WeatherDisplay:10.37,2013-11-24 13:52:00,
2013-11-24 08:57:00,48.1,32.2,30.32,ENE,76,19.6,19.6,54,0.00,CLR,,0.00,WeatherDisplay:10.37,2013-11-24 13:57:00,
2013-11-24 09:02:00,47.7,32.3,30.32,NE,47,10.4,10.4,55,0.00,CLR,,0.00,WeatherDisplay:10.37,2013-11-24 14:02:00,
2013-11-24 09:07:00,47.5,32.6,30.33,ENE,70,8.1,8.1,56,0.00,CLR,,0.00,WeatherDisplay:10.37,2013-11-24 14:07:00,
2013-11-24 09:12:00,47.5,32.1,30.33,ENE,76,12.7,12.7,55,0.00,CLR,,0.00,WeatherDisplay:10.37,2013-11-24 14:12:00,
2013-11-24 09:17:00,47.4,32.5,30.33,NE,37,15.0,15.0,56,0.00,CLR,,0.00,WeatherDisplay:10.37,2013-11-24 14:17:00,
2013-11-24 09:22:00,47.3,32.4,30.33,NE,53,10.0,10.0,56,0.00,CLR,,0.00,WeatherDisplay:10.37,2013-11-24 14:22:00,
2013-11-24 09:27:00,47.4,32.5,30.33,NNE,32,11.5,11.5,56,0.00,CLR,,0.00,WeatherDisplay:10.37,2013-11-24 14:27:00,
2013-11-24 09:32:00,47.4,32.5,30.34,ENE,69,6.9,6.9,56,0.00,CLR,,0.00,WeatherDisplay:10.37,2013-11-24 14:32:00,
2013-11-24 09:37:00,47.4,31.6,30.34,NNE,32,12.7,12.7,54,0.00,CLR,,0.00,WeatherDisplay:10.37,2013-11-24 14:37:00,
2013-11-24 09:42:00,47.6,31.3,30.34,East,88,10.4,10.4,53,0.00,CLR,,0.00,WeatherDisplay:10.37,2013-11-24 14:42:00,
2013-11-24 09:47:00,47.9,31.1,30.34,NE,37,12.7,12.7,52,0.00,CLR,,0.00,WeatherDisplay:10.37,2013-11-24 14:47:00,
2013-11-24 09:52:00,48.1,31.8,30.34,East,86,6.9,6.9,53,0.00,CLR,,0.00,WeatherDisplay:10.37,2013-11-24 14:52:00,
2013-11-24 09:57:00,48.1,30.8,30.34,NNE,13,4.6,4.6,51,0.00,CLR,,0.00,WeatherDisplay:10.37,2013-11-24 14:57:00,
2013-11-24 10:02:00,48.4,31.1,30.35,ENE,78,8.0,8.0,51,0.00,CLR,,0.00,WeatherDisplay:10.37,2013-11-24 15:02:00,
2013-11-24 10:07:00,48.7,31.8,30.35,North,355,6.9,6.9,52,0.00,CLR,,0.00,WeatherDisplay:10.37,2013-11-24 15:07:00,
2013-11-24 10:12:00,48.9,31.1,30.35,NE,39,11.5,11.5,50,0.00,CLR,,0.00,WeatherDisplay:10.37,2013-11-24 15:12:00,
2013-11-24 10:17:00,48.9,31.1,30.35,North,5,11.5,11.5,50,0.00,CLR,,0.00,WeatherDisplay:10.37,2013-11-24 15:17:00,
2013-11-24 10:22:00,48.9,30.6,30.36,NNE,26,10.4,10.4,49,0.00,CLR,,0.00,WeatherDisplay:10.37,2013-11-24 15:22:00,
2013-11-24 10:27:00,49.1,31.2,30.36,East,80,6.9,6.9,50,0.00,CLR,,0.00,WeatherDisplay:10.37,2013-11-24 15:27:00,
2013-11-24 10:32:00,49.4,32.0,30.36,East,94,11.0,11.0,51,0.00,CLR,,0.00,WeatherDisplay:10.37,2013-11-24 15:32:00,
2013-11-24 10:37:00,49.5,31.1,30.37,NE,49,9.2,9.2,49,0.00,CLR,,0.00,WeatherDisplay:10.37,2013-11-24 15:37:00,
2013-11-24 10:42:00,49.4,31.0,30.37,NE,39,11.5,11.5,49,0.00,CLR,,0.00,WeatherDisplay:10.37,2013-11-24 15:42:00,
2013-11-24 10:47:00,49.5,31.6,30.37,NE,41,11.5,11.5,50,0.00,CLR,,0.00,WeatherDisplay:10.37,2013-11-24 15:47:00,
2013-11-24 10:52:00,49.5,31.6,30.37,NE,51,11.5,11.5,50,0.00,CLR,,0.00,WeatherDisplay:10.37,2013-11-24 15:52:00,
2013-11-24 10:57:00,49.9,32.0,30.37,NNW,339,7.0,7.0,50,0.00,CLR,,0.00,WeatherDisplay:10.37,2013-11-24 15:57:00,
2013-11-24 11:02:00,50.4,32.4,30.36,North,349,5.8,5.8,50,0.00,CLR,,0.00,WeatherDisplay:10.37,2013-11-24 16:02:00,
2013-11-24 11:07:00,50.9,32.4,30.37,ENE,76,11.5,11.5,49,0.00,CLR,,0.00,WeatherDisplay:10.37,2013-11-24 16:07:00,
2013-11-24 11:12:00,50.6,31.6,30.37,NNE,28,10.4,10.4,48,0.00,CLR,,0.00,WeatherDisplay:10.37,2013-11-24 16:12:00,
2013-11-24 11:17:00,50.8,31.3,30.36,NNE,18,7.0,7.0,47,0.00,CLR,,0.00,WeatherDisplay:10.37,2013-11-24 16:17:00,
2013-11-24 11:22:00,51.0,30.4,30.37,North,355,12.7,12.7,45,0.00,CLR,,0.00,WeatherDisplay:10.37,2013-11-24 16:22:00,
2013-11-24 11:27:00,51.0,29.8,30.37,NNE,15,6.9,6.9,44,0.00,CLR,,0.00,WeatherDisplay:10.37,2013-11-24 16:27:00,
2013-11-24 11:32:00,51.1,30.5,30.37,NNW,345,8.1,8.1,45,0.00,CLR,,0.00,WeatherDisplay:10.37,2013-11-24 16:32:00,
2013-11-24 11:37:00,51.4,30.7,30.37,NNE,28,9.2,9.2,45,0.00,CLR,,0.00,WeatherDisplay:10.37,2013-11-24 16:37:00,
2013-11-24 11:42:00,51.5,30.3,30.37,NE,40,10.4,10.4,44,0.00,CLR,,0.00,WeatherDisplay:10.37,2013-11-24 16:42:00,
2013-11-24 11:47:00,51.8,31.1,30.37,NE,42,7.0,7.0,45,0.00,CLR,,0.00,WeatherDisplay:10.37,2013-11-24 16:47:00,
2013-11-24 11:52:00,51.8,30.6,30.36,NNE,22,11.5,11.5,44,0.00,CLR,,0.00,WeatherDisplay:10.37,2013-11-24 16:52:00,
2013-11-24 11:57:00,51.8,30.0,30.37,NNE,29,8.1,8.1,43,0.00,CLR,,0.00,WeatherDisplay:10.37,2013-11-24 16:57:00,
2013-11-24 12:02:00,51.6,29.2,30.37,NE,38,11.5,11.5,42,0.00,CLR,,0.00,WeatherDisplay:10.37,2013-11-24 17:02:00,
2013-11-24 12:07:00,51.7,29.3,30.36,NE,46,4.6,4.6,42,0.00,CLR,,0.00,WeatherDisplay:10.37,2013-11-24 17:07:00,
2013-11-24 12:12:00,51.9,29.5,30.35,NE,55,10.4,10.4,42,0.00,CLR,,0.00,WeatherDisplay:10.37,2013-11-24 17:12:00,
2013-11-24 12:17:00,51.5,28.6,30.35,NE,36,10.4,10.4,41,0.00,CLR,,0.00,WeatherDisplay:10.37,2013-11-24 17:17:00,
2013-11-24 12:22:00,51.9,30.6,30.35,NW,320,4.6,4.6,44,0.00,CLR,,0.00,WeatherDisplay:10.37,2013-11-24 17:22:00,
2013-11-24 12:27:00,52.7,31.4,30.34,NNE,26,5.8,5.8,44,0.00,CLR,,0.00,WeatherDisplay:10.37,2013-11-24 17:27:00,
2013-11-24 12:32:00,53.2,30.1,30.34,NNE,15,3.5,3.5,41,0.00,CLR,,0.00,WeatherDisplay:10.37,2013-11-24 17:32:00,
2013-11-24 12:37:00,53.6,30.4,30.34,East,79,11.5,11.5,41,0.00,CLR,,0.00,WeatherDisplay:10.37,2013-11-24 17:37:00,
2013-11-24 12:42:00,53.8,30.0,30.33,NW,321,4.6,4.6,40,0.00,CLR,,0.00,WeatherDisplay:10.37,2013-11-24 17:42:00,
2013-11-24 12:47:00,53.6,29.8,30.33,NNE,17,9.0,9.0,40,0.00,CLR,,0.00,WeatherDisplay:10.37,2013-11-24 17:47:00,
2013-11-24 12:52:00,53.4,29.0,30.33,North,9,10.4,10.4,39,0.00,CLR,,0.00,WeatherDisplay:10.37,2013-11-24 17:52:00,
2013-11-24 12:57:00,53.2,28.2,30.33,NNE,22,9.2,9.2,38,0.00,CLR,,0.00,WeatherDisplay:10.37,2013-11-24 17:57:00,
2013-11-24 13:02:00,52.6,27.7,30.33,NE,53,8.1,8.1,38,0.00,CLR,,0.00,WeatherDisplay:10.37,2013-11-24 18:02:00,
2013-11-24 13:07:00,52.7,29.0,30.33,NE,44,4.6,4.6,40,0.00,CLR,,0.00,WeatherDisplay:10.37,2013-11-24 18:07:00,
2013-11-24 13:12:00,53.4,30.3,30.33,East,85,3.5,3.5,41,0.00,CLR,,0.00,WeatherDisplay:10.37,2013-11-24 18:12:00,
2013-11-24 13:17:00,54.0,30.2,30.32,NNE,22,4.6,4.6,40,0.00,CLR,,0.00,WeatherDisplay:10.37,2013-11-24 18:17:00,
2013-11-24 13:22:00,54.1,29.0,30.32,ENE,66,11.5,11.5,38,0.00,CLR,,0.00,WeatherDisplay:10.37,2013-11-24 18:22:00,
2013-11-24 13:27:00,53.7,28.7,30.32,ENE,76,7.0,7.0,38,0.00,CLR,,0.00,WeatherDisplay:10.37,2013-11-24 18:27:00,
2013-11-24 13:32:00,53.3,28.3,30.32,East,86,8.1,8.1,38,0.00,CLR,,0.00,WeatherDisplay:10.37,2013-11-24 18:32:00,
2013-11-24 13:37:00,53.1,28.1,30.32,ENE,67,10.4,10.4,38,0.00,CLR,,0.00,WeatherDisplay:10.37,2013-11-24 18:37:00,
2013-11-24 13:42:00,52.8,27.9,30.32,NE,53,6.9,6.9,38,0.00,CLR,,0.00,WeatherDisplay:10.37,2013-11-24 18:42:00,
2013-11-24 13:47:00,53.0,27.4,30.32,East,98,11.5,11.5,37,0.00,CLR,,0.00,WeatherDisplay:10.37,2013-11-24 18:47:00,
2013-11-24 13:52:00,53.0,27.4,30.32,NNE,29,16.1,16.1,37,0.00,CLR,,0.00,WeatherDisplay:10.37,2013-11-24 18:52:00,
2013-11-24 13:57:00,53.1,26.8,30.32,ENE,74,9.2,9.2,36,0.00,CLR,,0.00,WeatherDisplay:10.37,2013-11-24 18:57:00,
2013-11-24 14:02:00,53.5,25.8,30.31,East,82,6.9,6.9,34,0.00,CLR,,0.00,WeatherDisplay:10.37,2013-11-24 19:02:00,
2013-11-24 14:07:00,53.7,26.7,30.31,NE,45,11.5,11.5,35,0.00,CLR,,0.00,WeatherDisplay:10.37,2013-11-24 19:07:00,
2013-11-24 14:12:00,53.9,26.1,30.31,ENE,67,11.5,11.5,34,0.00,CLR,,0.00,WeatherDisplay:10.37,2013-11-24 19:12:00,
2013-11-24 14:17:00,53.9,27.5,30.31,ENE,67,7.0,7.0,36,0.00,CLR,,0.00,WeatherDisplay:10.37,2013-11-24 19:17:00,
2013-11-24 14:22:00,54.0,25.5,30.31,NE,34,9.2,9.2,33,0.00,CLR,,0.00,WeatherDisplay:10.37,2013-11-24 19:22:00,
2013-11-24 14:27:00,53.9,26.1,30.31,NNE,26,11.5,11.5,34,0.00,CLR,,0.00,WeatherDisplay:10.37,2013-11-24 19:27:00,
2013-11-24 14:32:00,54.0,26.2,30.31,NNW,348,9.2,9.2,34,0.00,CLR,,0.00,WeatherDisplay:10.37,2013-11-24 19:32:00,
2013-11-24 14:37:00,54.1,27.0,30.31,North,5,4.6,4.6,35,0.00,CLR,,0.00,WeatherDisplay:10.37,2013-11-24 19:37:00,
2013-11-24 14:42:00,53.9,25.4,30.31,ENE,76,11.5,11.5,33,0.00,CLR,,0.00,WeatherDisplay:10.37,2013-11-24 19:42:00,
2013-11-24 14:47:00,53.3,26.3,30.31,East,82,7.0,7.0,35,0.00,CLR,,0.00,WeatherDisplay:10.37,2013-11-24 19:47:00,
2013-11-24 14:53:00,53.3,26.3,30.31,NNE,30,4.6,4.6,35,0.00,CLR,,0.00,WeatherDisplay:10.37,2013-11-24 19:53:00,
2013-11-24 14:58:00,53.5,26.5,30.31,East,80,6.9,6.9,35,0.00,CLR,,0.00,WeatherDisplay:10.37,2013-11-24 19:58:00,
2013-11-24 15:03:00,53.2,25.5,30.31,ENE,67,10.4,10.4,34,0.00,CLR,,0.00,WeatherDisplay:10.37,2013-11-24 20:03:00,
2013-11-24 15:08:00,53.2,25.5,30.31,North,9,6.9,6.9,34,0.00,CLR,,0.00,WeatherDisplay:10.37,2013-11-24 20:08:00,
2013-11-24 15:13:00,53.3,25.6,30.31,NE,56,7.0,7.0,34,0.00,CLR,,0.00,WeatherDisplay:10.37,2013-11-24 20:13:00,
2013-11-24 15:18:00,53.3,24.9,30.31,NE,46,8.0,8.0,33,0.00,CLR,,0.00,WeatherDisplay:10.37,2013-11-24 20:18:00,
2013-11-24 15:23:00,53.1,24.7,30.32,East,91,9.2,9.2,33,0.00,CLR,,0.00,WeatherDisplay:10.37,2013-11-24 20:23:00,
2013-11-24 15:28:00,53.2,26.2,30.32,NE,43,7.0,7.0,35,0.00,CLR,,0.00,WeatherDisplay:10.37,2013-11-24 20:28:00,
2013-11-24 15:33:00,53.3,26.3,30.32,NNE,17,11.5,11.5,35,0.00,CLR,,0.00,WeatherDisplay:10.37,2013-11-24 20:33:00,
2013-11-24 15:38:00,53.2,25.5,30.32,NNE,28,11.5,11.5,34,0.00,CLR,,0.00,WeatherDisplay:10.37,2013-11-24 20:38:00,
2013-11-24 15:43:00,52.7,24.4,30.33,ENE,65,11.0,11.0,33,0.00,CLR,,0.00,WeatherDisplay:10.37,2013-11-24 20:43:00,
2013-11-24 15:48:00,52.4,24.1,30.33,East,84,5.8,5.8,33,0.00,CLR,,0.00,WeatherDisplay:10.37,2013-11-24 20:48:00,
2013-11-24 15:53:00,52.2,25.3,30.33,NNE,21,8.1,8.1,35,0.00,CLR,,0.00,WeatherDisplay:10.37,2013-11-24 20:53:00,
2013-11-24 15:58:00,52.2,25.3,30.34,ENE,78,6.0,6.0,35,0.00,CLR,,0.00,WeatherDisplay:10.37,2013-11-24 20:58:00,
2013-11-24 16:03:00,52.0,24.5,30.34,ESE,111,9.2,9.2,34,0.00,CLR,,0.00,WeatherDisplay:10.37,2013-11-24 21:03:00,
2013-11-24 16:08:00,51.8,25.7,30.34,NE,51,10.4,10.4,36,0.00,CLR,,0.00,WeatherDisplay:10.37,2013-11-24 21:08:00,
2013-11-24 16:13:00,51.7,24.9,30.35,ENE,68,6.9,6.9,35,0.00,CLR,,0.00,WeatherDisplay:10.37,2013-11-24 21:13:00,
2013-11-24 16:18:00,51.4,24.6,30.35,East,88,9.2,9.2,35,0.00,CLR,,0.00,WeatherDisplay:10.37,2013-11-24 21:18:00,
2013-11-24 16:23:00,51.1,25.0,30.35,East,85,6.9,6.9,36,0.00,CLR,,0.00,WeatherDisplay:10.37,2013-11-24 21:23:00,
2013-11-24 16:28:00,50.8,24.8,30.35,ENE,78,8.0,8.0,36,0.00,CLR,,0.00,WeatherDisplay:10.37,2013-11-24 21:28:00,
2013-11-24 16:33:00,50.5,25.2,30.35,East,80,5.0,5.0,37,0.00,CLR,,0.00,WeatherDisplay:10.37,2013-11-24 21:33:00,
2013-11-24 16:38:00,50.3,25.0,30.35,NE,54,4.6,4.6,37,0.00,CLR,,0.00,WeatherDisplay:10.37,2013-11-24 21:38:00,
2013-11-24 16:43:00,50.0,26.0,30.35,East,79,4.6,4.6,39,0.00,CLR,,0.00,WeatherDisplay:10.37,2013-11-24 21:43:00,
2013-11-24 16:48:00,49.8,25.8,30.35,NE,37,3.0,3.0,39,0.00,CLR,,0.00,WeatherDisplay:10.37,2013-11-24 21:48:00,
2013-11-24 16:53:00,49.5,25.5,30.35,NE,45,5.8,5.8,39,0.00,CLR,,0.00,WeatherDisplay:10.37,2013-11-24 21:53:00,
2013-11-24 16:58:00,49.2,25.9,30.35,ENE,73,0.0,0.0,40,0.00,CLR,,0.00,WeatherDisplay:10.37,2013-11-24 21:58:00,
2013-11-24 17:03:00,49.0,25.7,30.36,NE,36,3.5,3.5,40,0.00,CLR,,0.00,WeatherDisplay:10.37,2013-11-24 22:03:00,
2013-11-24 17:08:00,48.7,26.0,30.36,NNE,26,0.0,0.0,41,0.00,CLR,,0.00,WeatherDisplay:10.37,2013-11-24 22:08:00,
2013-11-24 17:13:00,48.4,26.3,30.36,ENE,58,0.0,0.0,42,0.00,CLR,,0.00,WeatherDisplay:10.37,2013-11-24 22:13:00,
2013-11-24 17:18:00,48.1,26.6,30.36,ENE,59,0.0,0.0,43,0.00,CLR,,0.00,WeatherDisplay:10.37,2013-11-24 22:18:00,
2013-11-24 17:23:00,47.8,26.4,30.36,ENE,60,0.0,0.0,43,0.00,CLR,,0.00,WeatherDisplay:10.37,2013-11-24 22:23:00,
2013-11-24 17:28:00,47.5,26.6,30.36,ENE,61,0.0,0.0,44,0.00,CLR,,0.00,WeatherDisplay:10.37,2013-11-24 22:28:00,
2013-11-24 17:33:00,47.3,27.0,30.36,ENE,60,0.0,0.0,45,0.00,CLR,,0.00,WeatherDisplay:10.37,2013-11-24 22:33:00,
2013-11-24 17:38:00,47.0,27.3,30.36,ENE,60,0.0,0.0,46,0.00,CLR,,0.00,WeatherDisplay:10.37,2013-11-24 22:38:00,
2013-11-24 17:43:00,46.7,27.5,30.37,ENE,60,0.0,0.0,47,0.00,CLR,,0.00,WeatherDisplay:10.37,2013-11-24 22:43:00,
2013-11-24 17:48:00,46.5,27.3,30.37,ENE,60,0.0,0.0,47,0.00,CLR,,0.00,WeatherDisplay:10.37,2013-11-24 22:48:00,
2013-11-24 17:53:00,45.9,26.8,30.37,ENE,60,0.0,0.0,47,0.00,CLR,,0.00,WeatherDisplay:10.37,2013-11-24 22:53:00,
2013-11-24 17:58:00,45.5,26.9,30.37,ENE,60,0.0,0.0,48,0.00,CLR,,0.00,WeatherDisplay:10.37,2013-11-24 22:58:00,
2013-11-24 18:03:00,45.2,27.2,30.38,ENE,60,0.0,0.0,49,0.00,CLR,,0.00,WeatherDisplay:10.37,2013-11-24 23:03:00,
2013-11-24 18:08:00,45.0,27.9,30.38,ENE,60,0.0,0.0,51,0.00,CLR,,0.00,WeatherDisplay:10.37,2013-11-24 23:08:00,
2013-11-24 18:13:00,44.7,28.1,30.39,ENE,60,0.0,0.0,52,0.00,CLR,,0.00,WeatherDisplay:10.37,2013-11-24 23:13:00,
2013-11-24 18:18:00,44.4,27.9,30.39,ENE,60,0.0,0.0,52,0.00,CLR,,0.00,WeatherDisplay:10.37,2013-11-24 23:18:00,
2013-11-24 18:23:00,44.0,28.0,30.39,ENE,61,0.0,0.0,53,0.00,CLR,,0.00,WeatherDisplay:10.37,2013-11-24 23:23:00,
2013-11-24 18:28:00,43.6,27.6,30.40,ENE,59,0.0,0.0,53,0.00,CLR,,0.00,WeatherDisplay:10.37,2013-11-24 23:28:00,
2013-11-24 18:33:00,43.1,27.1,30.39,ENE,70,0.0,0.0,53,0.00,CLR,,0.00,WeatherDisplay:10.37,2013-11-24 23:33:00,
2013-11-24 18:38:00,42.8,26.8,30.39,NE,53,0.0,0.0,53,0.00,CLR,,0.00,WeatherDisplay:10.37,2013-11-24 23:38:00,
2013-11-24 18:43:00,42.7,26.7,30.40,NNE,29,0.0,0.0,53,0.00,CLR,,0.00,WeatherDisplay:10.37,2013-11-24 23:43:00,
2013-11-24 18:48:00,42.6,26.2,30.40,NNE,25,0.0,0.0,52,0.00,CLR,,0.00,WeatherDisplay:10.37,2013-11-24 23:48:00,
2013-11-24 18:53:00,42.5,26.1,30.40,NNE,25,0.0,0.0,52,0.00,CLR,,0.00,WeatherDisplay:10.37,2013-11-24 23:53:00,
2013-11-24 18:58:00,42.5,26.1,30.40,NNE,25,0.0,0.0,52,0.00,CLR,,0.00,WeatherDisplay:10.37,2013-11-24 23:58:00,
2013-11-24 19:03:00,42.4,26.0,30.41,NNE,26,0.0,0.0,52,0.00,CLR,,0.00,WeatherDisplay:10.37,2013-11-25 00:03:00,
2013-11-24 19:08:00,42.3,25.9,30.41,NNE,26,0.0,0.0,52,0.00,CLR,,0.00,WeatherDisplay:10.37,2013-11-25 00:08:00,
2013-11-24 19:13:00,42.2,26.3,30.41,NNE,26,0.0,0.0,53,0.00,CLR,,0.00,WeatherDisplay:10.37,2013-11-25 00:13:00,
2013-11-24 19:18:00,42.0,26.1,30.41,NNE,25,0.0,0.0,53,0.00,CLR,,0.00,WeatherDisplay:10.37,2013-11-25 00:18:00,
2013-11-24 19:23:00,41.8,26.4,30.41,NNE,26,0.0,0.0,54,0.00,CLR,,0.00,WeatherDisplay:10.37,2013-11-25 00:23:00,
2013-11-24 19:28:00,41.6,25.7,30.42,NNE,25,0.0,0.0,53,0.00,CLR,,0.00,WeatherDisplay:10.37,2013-11-25 00:28:00,
2013-11-24 19:33:00,41.4,26.0,30.42,NE,40,0.0,0.0,54,0.00,CLR,,0.00,WeatherDisplay:10.37,2013-11-25 00:33:00,
2013-11-24 19:38:00,41.3,25.4,30.42,NE,53,0.0,0.0,53,0.00,CLR,,0.00,WeatherDisplay:10.37,2013-11-25 00:38:00,
2013-11-24 19:43:00,41.3,25.0,30.41,ENE,61,3.5,3.5,52,0.00,CLR,,0.00,WeatherDisplay:10.37,2013-11-25 00:43:00,
2013-11-24 19:48:00,41.4,25.1,30.41,ENE,60,1.2,1.2,52,0.00,CLR,,0.00,WeatherDisplay:10.37,2013-11-25 00:48:00,
2013-11-24 19:53:00,41.4,25.1,30.42,ENE,63,3.5,3.5,52,0.00,CLR,,0.00,WeatherDisplay:10.37,2013-11-25 00:53:00,
2013-11-24 19:58:00,41.5,24.7,30.42,NE,42,1.0,1.0,51,0.00,CLR,,0.00,WeatherDisplay:10.37,2013-11-25 00:58:00,
2013-11-24 20:03:00,41.5,24.7,30.42,ENE,57,0.0,0.9,51,0.00,CLR,,0.00,WeatherDisplay:10.37,2013-11-25 01:03:00,
2013-11-24 20:08:00,41.4,24.6,30.42,ENE,59,0.0,0.0,51,0.00,CLR,,0.00,WeatherDisplay:10.37,2013-11-25 01:08:00,
2013-11-24 20:13:00,41.3,24.5,30.42,NE,42,2.3,2.3,51,0.00,CLR,,0.00,WeatherDisplay:10.37,2013-11-25 01:13:00,
2013-11-24 20:18:00,41.2,24.9,30.42,NE,51,0.0,0.0,52,0.00,CLR,,0.00,WeatherDisplay:10.37,2013-11-25 01:18:00,
2013-11-24 20:23:00,41.1,24.3,30.43,ENE,61,3.0,3.0,51,0.00,CLR,,0.00,WeatherDisplay:10.37,2013-11-25 01:23:00,
2013-11-24 20:28:00,41.1,24.8,30.43,NE,52,1.2,1.2,52,0.00,CLR,,0.00,WeatherDisplay:10.37,2013-11-25 01:28:00,
2013-11-24 20:33:00,41.0,24.2,30.43,ENE,61,3.5,3.5,51,0.00,CLR,,0.00,WeatherDisplay:10.37,2013-11-25 01:33:00,
2013-11-24 20:38:00,40.9,24.1,30.44,NE,53,1.2,0.0,51,0.00,CLR,,0.00,WeatherDisplay:10.37,2013-11-25 01:38:00,
2013-11-24 20:43:00,40.8,24.1,30.44,NNE,30,1.2,1.2,51,0.00,CLR,,0.00,WeatherDisplay:10.37,2013-11-25 01:43:00,
2013-11-24 20:48:00,40.7,24.4,30.44,ENE,63,0.0,0.0,52,0.00,CLR,,0.00,WeatherDisplay:10.37,2013-11-25 01:48:00,
2013-11-24 20:53:00,40.6,24.3,30.44,NE,54,0.0,0.0,52,0.00,CLR,,0.00,WeatherDisplay:10.37,2013-11-25 01:53:00,
2013-11-24 20:58:00,40.4,24.1,30.44,NE,44,1.0,1.0,52,0.00,CLR,,0.00,WeatherDisplay:10.37,2013-11-25 01:58:00,
2013-11-24 21:03:00,40.3,24.1,30.45,ENE,68,0.0,0.0,52,0.00,CLR,,0.00,WeatherDisplay:10.37,2013-11-25 02:03:00,
2013-11-24 21:08:00,40.2,24.0,30.45,NE,51,0.0,0.0,52,0.00,CLR,,0.00,WeatherDisplay:10.37,2013-11-25 02:08:00,
2013-11-24 21:13:00,40.1,23.9,30.45,ENE,69,4.6,4.6,52,0.00,CLR,,0.00,WeatherDisplay:10.37,2013-11-25 02:13:00,
2013-11-24 21:18:00,40.0,24.2,30.45,NE,42,3.5,3.5,53,0.00,CLR,,0.00,WeatherDisplay:10.37,2013-11-25 02:18:00,
2013-11-24 21:23:00,39.9,24.6,30.45,ENE,58,1.2,1.2,54,0.00,CLR,,0.00,WeatherDisplay:10.37,2013-11-25 02:23:00,
2013-11-24 21:28:00,39.7,24.4,30.45,ENE,59,6.9,0.0,54,0.00,CLR,,0.00,WeatherDisplay:10.37,2013-11-25 02:28:00,
2013-11-24 21:33:00,39.6,24.3,30.45,NE,47,2.3,2.3,54,0.00,CLR,,0.00,WeatherDisplay:10.37,2013-11-25 02:33:00,
2013-11-24 21:38:00,39.5,24.7,30.45,ENE,59,3.5,0.0,55,0.00,CLR,,0.00,WeatherDisplay:10.37,2013-11-25 02:38:00,
2013-11-24 21:43:00,39.4,24.6,30.45,NE,46,6.9,6.9,55,0.00,CLR,,0.00,WeatherDisplay:10.37,2013-11-25 02:43:00,
2013-11-24 21:48:00,39.3,24.5,30.45,ENE,72,0.0,0.0,55,0.00,CLR,,0.00,WeatherDisplay:10.37,2013-11-25 02:48:00,
2013-11-24 21:53:00,39.1,24.3,30.45,ENE,72,2.3,2.3,55,0.00,CLR,,0.00,WeatherDisplay:10.37,2013-11-25 02:53:00,
2013-11-24 21:58:00,39.1,24.3,30.45,NE,44,0.0,0.0,55,0.00,CLR,,0.00,WeatherDisplay:10.37,2013-11-25 02:58:00,
2013-11-24 22:03:00,39.0,24.6,30.45,NE,39,1.2,1.2,56,0.00,CLR,,0.00,WeatherDisplay:10.37,2013-11-25 03:03:00,
2013-11-24 22:08:00,38.9,24.5,30.45,ENE,57,0.0,0.0,56,0.00,CLR,,0.00,WeatherDisplay:10.37,2013-11-25 03:08:00,
2013-11-24 22:13:00,38.7,24.8,30.45,NE,38,2.3,2.3,57,0.00,CLR,,0.00,WeatherDisplay:10.37,2013-11-25 03:13:00,
2013-11-24 22:18:00,38.6,24.7,30.45,NE,45,0.0,0.0,57,0.00,CLR,,0.00,WeatherDisplay:10.37,2013-11-25 03:18:00,
2013-11-24 22:23:00,38.4,24.5,30.45,NE,38,1.2,0.0,57,0.00,CLR,,0.00,WeatherDisplay:10.37,2013-11-25 03:23:00,
2013-11-24 22:28:00,38.3,24.4,30.45,NE,55,0.0,0.0,57,0.00,CLR,,0.00,WeatherDisplay:10.37,2013-11-25 03:28:00,
2013-11-24 22:33:00,38.2,24.3,30.45,ENE,57,1.2,0.0,57,0.00,CLR,,0.00,WeatherDisplay:10.37,2013-11-25 03:33:00,
2013-11-24 22:38:00,38.1,23.8,30.45,ENE,68,3.5,3.5,56,0.00,CLR,,0.00,WeatherDisplay:10.37,2013-11-25 03:38:00,
2013-11-24 22:43:00,38.1,24.2,30.45,ENE,74,6.9,6.9,57,0.00,CLR,,0.00,WeatherDisplay:10.37,2013-11-25 03:43:00,
2013-11-24 22:48:00,38.0,24.1,30.45,ENE,71,2.3,0.0,57,0.00,CLR,,0.00,WeatherDisplay:10.37,2013-11-25 03:48:00,
2013-11-24 22:53:00,37.9,24.0,30.45,NNE,21,3.0,3.0,57,0.00,CLR,,0.00,WeatherDisplay:10.37,2013-11-25 03:53:00,
2013-11-24 22:58:00,37.9,24.0,30.45,NNE,33,1.2,0.0,57,0.00,CLR,,0.00,WeatherDisplay:10.37,2013-11-25 03:58:00,
2013-11-24 23:03:00,37.9,24.0,30.45,NNE,31,5.0,5.0,57,0.00,CLR,,0.00,WeatherDisplay:10.37,2013-11-25 04:03:00,
2013-11-24 23:08:00,37.8,23.9,30.45,NE,50,0.0,0.2,57,0.00,CLR,,0.00,WeatherDisplay:10.37,2013-11-25 04:08:00,
2013-11-24 23:13:00,37.7,23.8,30.45,NE,44,1.2,0.0,57,0.00,CLR,,0.00,WeatherDisplay:10.37,2013-11-25 04:13:00,
2013-11-24 23:18:00,37.6,23.7,30.45,NNE,32,5.8,5.8,57,0.00,CLR,,0.00,WeatherDisplay:10.37,2013-11-25 04:18:00,
2013-11-24 23:23:00,37.5,23.6,30.45,ENE,57,3.5,0.0,57,0.00,CLR,,0.00,WeatherDisplay:10.37,2013-11-25 04:23:00,
2013-11-24 23:28:00,37.6,23.7,30.45,NE,55,3.5,3.5,57,0.00,CLR,,0.00,WeatherDisplay:10.37,2013-11-25 04:28:00,
2013-11-24 23:33:00,37.5,23.6,30.45,NE,39,6.9,6.9,57,0.00,CLR,,0.00,WeatherDisplay:10.37,2013-11-25 04:33:00,
2013-11-24 23:38:00,37.5,23.6,30.44,NE,53,1.2,1.2,57,0.00,CLR,,0.00,WeatherDisplay:10.37,2013-11-25 04:38:00,
2013-11-24 23:43:00,37.5,23.2,30.45,ENE,60,0.0,0.0,56,0.00,CLR,,0.00,WeatherDisplay:10.37,2013-11-25 04:43:00,
2013-11-24 23:48:00,37.5,23.2,30.44,ENE,57,0.0,0.0,56,0.00,CLR,,0.00,WeatherDisplay:10.37,2013-11-25 04:48:00,
2013-11-24 23:53:00,37.5,23.2,30.44,NE,34,6.9,6.9,56,0.00,CLR,,0.00,WeatherDisplay:10.37,2013-11-25 04:53:00,
2013-11-24 23:58:00,37.5,22.8,30.44,ENE,61,5.8,5.8,55,0.00,CLR,,0.00,WeatherDisplay:10.37,2013-11-25 04:58:00,